Time;durP1;ratioP1;P1;durP2;ratioP2;P2;SDS_P1;SDS_P2;PMS_P1;PMS_P2;Temp;Humidity;BMP_temperature;BMP_pressure;BME280_temperature;BME280_humidity;BME280_pressure;Samples;Min_cycle;Max_cycle;Signal;HPM_P1;HPM_P2
2023/04/04 00:01:05;;;;;;;3.65;1.85;;;;;;;1.49;100.00;103158.50;5015110;28;20045;-73
2023/04/04 00:03:30;;;;;;;2.33;1.65;;;;;;;1.50;100.00;103159.41;5001299;28;20061;-73
2023/04/04 00:05:56;;;;;;;3.58;1.77;;;;;;;1.46;100.00;103157.53;5016600;28;20033;-73
2023/04/04 00:08:21;;;;;;;2.30;1.60;;;;;;;1.45;100.00;103156.69;5017938;28;20043;-73
2023/04/04 00:10:47;;;;;;;3.17;1.92;;;;;;;1.42;100.00;103156.56;4982159;28;20293;-73
2023/04/04 00:13:12;;;;;;;3.45;1.85;;;;;;;1.39;100.00;103156.47;4998656;28;20025;-73
2023/04/04 00:15:38;;;;;;;2.78;1.85;;;;;;;1.38;100.00;103159.03;5001558;28;20396;-73
2023/04/04 00:18:04;;;;;;;3.35;1.88;;;;;;;1.37;100.00;103149.44;4985060;28;20036;-73
2023/04/04 00:20:30;;;;;;;2.63;1.60;;;;;;;1.35;100.00;103145.06;4984275;28;20083;-73
2023/04/04 00:22:56;;;;;;;2.55;1.90;;;;;;;1.33;100.00;103151.06;4997759;28;20043;-73
2023/04/04 00:25:22;;;;;;;3.50;1.88;;;;;;;1.32;100.00;103146.69;4980615;28;20035;-73
2023/04/04 00:27:48;;;;;;;2.03;1.83;;;;;;;1.29;100.00;103147.50;5003784;28;20028;-73
2023/04/04 00:30:13;;;;;;;4.05;1.70;;;;;;;1.28;100.00;103143.13;5001194;28;20040;-73
2023/04/04 00:32:39;;;;;;;2.63;1.67;;;;;;;1.26;100.00;103138.69;5017897;28;20110;-73
2023/04/04 00:35:05;;;;;;;4.40;2.03;;;;;;;1.25;100.00;103136.91;4998662;28;20117;-73
2023/04/04 00:37:31;;;;;;;3.30;2.10;;;;;;;1.23;100.00;103136.84;5016540;28;21136;-73
2023/04/04 00:39:57;;;;;;;3.35;1.90;;;;;;;1.23;100.00;103136.84;4996715;28;20695;-73
2023/04/04 00:42:22;;;;;;;4.25;2.20;;;;;;;1.24;100.00;103133.41;5017669;28;20056;-73
2023/04/04 00:44:50;;;;;;;6.60;2.20;;;;;;;1.25;100.00;103134.31;4994755;28;20615;-73
2023/04/04 00:47:16;;;;;;;4.63;2.13;;;;;;;1.27;100.00;103132.63;4997608;28;20056;-73
2023/04/04 00:49:43;;;;;;;3.45;2.20;;;;;;;1.25;100.00;103134.31;5001420;28;21760;-73
2023/04/04 00:52:10;;;;;;;4.72;2.05;;;;;;;1.25;100.00;103136.91;4979019;28;20115;-73
2023/04/04 00:54:35;;;;;;;2.40;1.70;;;;;;;1.25;100.00;103140.38;5015348;28;20617;-73
2023/04/04 00:57:01;;;;;;;4.35;2.30;;;;;;;1.24;100.00;103133.41;4966940;28;20193;-74
2023/04/04 00:59:27;;;;;;;2.83;1.90;;;;;;;1.22;100.00;103135.97;4997333;28;20045;-73
2023/04/04 01:01:53;;;;;;;4.30;2.30;;;;;;;1.22;100.00;103130.75;4999555;28;20052;-74
2023/04/04 01:04:19;;;;;;;4.28;2.00;;;;;;;1.20;100.00;103128.94;4986270;28;20037;-73
2023/04/04 01:06:44;;;;;;;3.92;2.20;;;;;;;1.18;100.00;103131.50;4995781;28;20051;-73
2023/04/04 01:09:11;;;;;;;4.07;2.20;;;;;;;1.17;100.00;103127.13;5013855;28;20041;-73
2023/04/04 01:11:37;;;;;;;4.97;2.38;;;;;;;1.17;100.00;103127.13;4999969;28;20163;-74
2023/04/04 01:14:02;;;;;;;6.05;2.50;;;;;;;1.17;100.00;103131.44;5000897;28;20209;-73
2023/04/04 01:16:28;;;;;;;4.80;2.60;;;;;;;1.15;100.00;103126.19;4996741;28;20675;-73
2023/04/04 01:18:54;;;;;;;5.03;2.25;;;;;;;1.13;100.00;103130.47;5017817;28;20503;-73
2023/04/04 01:21:21;;;;;;;5.00;2.53;;;;;;;1.11;100.00;103128.66;4999961;28;20086;-73
2023/04/04 01:24:00;;;;;;;4.40;2.42;;;;;;;1.08;100.00;103134.66;4991702;28;20452;-73
2023/04/04 01:26:26;;;;;;;3.35;2.00;;;;;;;1.04;100.00;103127.59;4988473;28;20040;-73
2023/04/04 01:28:53;;;;;;;4.20;2.13;;;;;;;1.02;100.00;103129.25;5005700;28;20349;-73
2023/04/04 01:31:22;;;;;;;5.25;2.63;;;;;;;1.00;100.00;103126.59;4984657;28;20037;-74
2023/04/04 01:34:25;;;;;;;6.20;2.72;;;;;;;0.98;100.00;103120.44;4999756;28;20302;-73
2023/04/04 01:37:01;;;;;;;3.33;1.88;;;;;;;0.97;100.00;103121.28;5001289;28;20031;-73
2023/04/04 01:39:35;;;;;;;5.00;3.17;;;;;;;0.94;100.00;103116.84;5020032;28;20055;-73
2023/04/04 01:42:02;;;;;;;6.88;2.47;;;;;;;0.94;100.00;103109.03;4998454;28;20512;-73
2023/04/04 01:44:28;;;;;;;4.18;2.50;;;;;;;0.94;100.00;103106.41;5019403;28;20480;-73
2023/04/04 01:46:54;;;;;;;5.35;2.55;;;;;;;0.97;100.00;103120.41;4983731;28;20036;-73
2023/04/04 01:49:21;;;;;;;4.38;2.55;;;;;;;0.96;100.00;103110.81;5001633;28;20029;-73
2023/04/04 01:51:48;;;;;;;6.38;2.85;;;;;;;0.96;100.00;103110.81;5002197;28;20133;-74
2023/04/04 01:54:14;;;;;;;4.80;2.28;;;;;;;0.94;100.00;103106.41;4997971;28;20052;-73
2023/04/04 01:56:39;;;;;;;4.45;2.88;;;;;;;0.94;100.00;103111.63;4979790;28;20041;-73
2023/04/04 01:59:06;;;;;;;4.43;2.25;;;;;;;0.94;100.00;103108.16;4994902;28;20045;-73
2023/04/04 02:01:32;;;;;;;5.68;2.63;;;;;;;0.93;100.00;103107.25;4994907;28;20158;-73
2023/04/04 02:03:57;;;;;;;4.60;2.45;;;;;;;0.90;100.00;103099.34;5016650;28;20036;-73
2023/04/04 02:06:23;;;;;;;6.10;2.65;;;;;;;0.90;100.00;103104.56;4953374;28;20045;-73
2023/04/04 02:08:48;;;;;;;6.75;2.88;;;;;;;0.87;100.00;103109.66;5015120;28;20503;-73
2023/04/04 02:11:14;;;;;;;3.65;2.50;;;;;;;0.85;100.00;103103.53;4997898;28;20044;-73
2023/04/04 02:13:43;;;;;;;4.47;2.50;;;;;;;0.82;100.00;103095.63;5016592;28;20594;-73
2023/04/04 02:16:09;;;;;;;3.53;2.70;;;;;;;0.81;100.00;103104.25;5013502;28;20045;-74
2023/04/04 02:18:35;;;;;;;5.90;2.90;;;;;;;0.78;100.00;103094.63;4980712;28;20154;-73
2023/04/04 02:21:00;;;;;;;4.53;2.85;;;;;;;0.77;100.00;103098.06;5022124;28;20040;-73
2023/04/04 02:23:26;;;;;;;4.38;2.72;;;;;;;0.77;100.00;103097.19;4999834;28;20069;-72
2023/04/04 02:25:51;;;;;;;8.20;2.97;;;;;;;0.78;100.00;103101.56;5002847;28;20049;-73
2023/04/04 02:28:18;;;;;;;4.45;2.67;;;;;;;0.76;100.00;103090.22;4982988;28;20055;-73
2023/04/04 02:30:43;;;;;;;5.50;2.97;;;;;;;0.78;100.00;103096.34;5002404;28;20335;-73
2023/04/04 02:33:09;;;;;;;4.72;2.67;;;;;;;0.77;100.00;103092.84;5000233;28;20419;-73
2023/04/04 02:35:34;;;;;;;5.00;3.13;;;;;;;0.77;100.00;103097.19;5000242;28;20029;-73
2023/04/04 02:38:00;;;;;;;5.40;3.20;;;;;;;0.78;100.00;103096.34;4975719;28;20037;-73
2023/04/04 02:40:26;;;;;;;6.70;3.25;;;;;;;0.77;100.00;103091.97;4997001;28;20091;-73
2023/04/04 02:42:51;;;;;;;6.28;3.13;;;;;;;0.75;100.00;103094.53;4999971;28;20345;-73
2023/04/04 02:45:17;;;;;;;4.13;2.95;;;;;;;0.74;100.00;103095.38;4969734;28;20064;-73
2023/04/04 02:47:48;;;;;;;6.78;3.00;;;;;;;0.73;100.00;103101.41;5020094;28;20033;-73
2023/04/04 02:50:14;;;;;;;5.38;2.85;;;;;;;0.71;100.00;103097.00;5001895;28;20662;-73
2023/04/04 02:52:39;;;;;;;6.65;3.00;;;;;;;0.69;100.00;103096.94;5001053;28;20049;-73
2023/04/04 02:55:13;;;;;;;4.05;2.90;;;;;;;0.65;100.00;103092.47;5018195;28;20044;-73
2023/04/04 02:57:39;;;;;;;6.10;2.70;;;;;;;0.63;100.00;103095.03;4998570;28;20424;-73
2023/04/04 03:00:05;;;;;;;6.25;3.30;;;;;;;0.61;100.00;103099.28;4982883;28;20288;-73
2023/04/04 03:02:32;;;;;;;5.15;2.75;;;;;;;0.59;100.00;103087.94;4958925;28;20247;-73
2023/04/04 03:04:57;;;;;;;6.82;3.17;;;;;;;0.57;100.00;103086.09;4999041;28;20421;-73
2023/04/04 03:07:23;;;;;;;4.95;3.47;;;;;;;0.56;100.00;103093.06;4999279;28;20428;-74
2023/04/04 03:09:48;;;;;;;8.00;3.20;;;;;;;0.54;100.00;103089.50;4998911;28;20147;-73
2023/04/04 03:12:14;;;;;;;5.13;3.22;;;;;;;0.52;100.00;103086.88;4998351;28;20041;-73
2023/04/04 03:14:39;;;;;;;6.07;2.80;;;;;;;0.51;100.00;103089.41;4998729;28;20235;-74
2023/04/04 03:17:06;;;;;;;6.38;3.20;;;;;;;0.51;100.00;103087.69;4999938;28;20102;-73
2023/04/04 03:19:32;;;;;;;5.57;3.05;;;;;;;0.49;100.00;103085.88;4985377;28;20102;-73
2023/04/04 03:21:57;;;;;;;4.28;3.03;;;;;;;0.47;100.00;103077.09;4980626;28;20099;-73
2023/04/04 03:24:24;;;;;;;7.07;3.30;;;;;;;0.44;100.00;103083.09;4997973;28;20049;-74
2023/04/04 03:26:49;;;;;;;6.25;2.90;;;;;;;0.43;100.00;103070.03;4993876;28;20045;-74
2023/04/04 03:29:15;;;;;;;4.30;3.00;;;;;;;0.42;100.00;103073.47;4999962;28;20558;-74
2023/04/04 03:31:41;;;;;;;6.75;3.03;;;;;;;0.41;100.00;103075.19;4995697;28;20037;-74
2023/04/04 03:34:08;;;;;;;5.75;3.10;;;;;;;0.39;100.00;103074.25;4997140;28;20141;-74
2023/04/04 03:36:34;;;;;;;7.43;3.22;;;;;;;0.38;100.00;103080.31;4998037;28;20076;-73
2023/04/04 03:39:00;;;;;;;5.60;3.20;;;;;;;0.34;100.00;103073.22;4999314;28;20037;-74
2023/04/04 03:41:25;;;;;;;6.68;3.53;;;;;;;0.31;100.00;103081.81;4999456;28;20041;-74
2023/04/04 03:43:50;;;;;;;8.07;3.25;;;;;;;0.29;100.00;103080.00;4997835;28;20500;-74
2023/04/04 03:46:16;;;;;;;8.10;3.58;;;;;;;0.28;100.00;103081.72;5003824;28;20636;-74
2023/04/04 03:48:41;;;;;;;6.20;3.10;;;;;;;0.25;100.00;103085.13;4984448;28;20172;-74
2023/04/04 03:51:07;;;;;;;5.50;3.10;;;;;;;0.23;100.00;103085.88;4994517;28;20167;-74
2023/04/04 03:53:34;;;;;;;7.15;3.15;;;;;;;0.21;100.00;103088.44;5007726;28;20133;-74
2023/04/04 03:56:00;;;;;;;6.70;3.13;;;;;;;0.20;100.00;103093.59;5002050;28;20045;-74
2023/04/04 03:58:27;;;;;;;4.90;3.03;;;;;;;0.17;100.00;103083.97;4984918;28;20065;-74
2023/04/04 04:00:53;;;;;;;4.70;3.13;;;;;;;0.14;100.00;103086.44;4999741;28;20129;-74
2023/04/04 04:03:20;;;;;;;3.92;2.70;;;;;;;0.12;100.00;103081.19;5004020;28;20071;-73
2023/04/04 04:05:46;;;;;;;4.47;3.10;;;;;;;0.11;100.00;103088.97;5022940;28;20029;-74
2023/04/04 04:08:12;;;;;;;7.50;3.20;;;;;;;0.11;100.00;103089.84;5021684;28;20040;-74
2023/04/04 04:10:37;;;;;;;5.15;3.10;;;;;;;0.10;100.00;103089.78;5021104;28;20041;-74
2023/04/04 04:13:03;;;;;;;6.63;3.03;;;;;;;0.08;100.00;103081.03;5019402;28;20036;-73
2023/04/04 04:15:28;;;;;;;4.85;3.22;;;;;;;0.08;100.00;103079.31;5023996;28;20296;-73
2023/04/04 04:17:54;;;;;;;4.72;2.95;;;;;;;0.07;100.00;103080.16;5020030;28;20054;-74
2023/04/04 04:20:19;;;;;;;7.35;2.97;;;;;;;0.05;100.00;103081.81;4997377;28;20108;-74
2023/04/04 04:22:48;;;;;;;7.57;3.40;;;;;;;0.07;100.00;103082.78;5003139;28;20694;-74
2023/04/04 04:25:14;;;;;;;5.50;3.08;;;;;;;0.07;100.00;103076.66;5018663;28;20428;-74
2023/04/04 04:27:40;;;;;;;4.80;2.80;;;;;;;0.05;100.00;103074.00;5016370;28;20021;-74
2023/04/04 04:54:23;;;;;;;8.77;3.45;;;;;;;0.04;100.00;103079.16;4994097;28;21249;-73
2023/04/04 04:56:48;;;;;;;5.43;3.28;;;;;;;0.03;100.00;103079.97;4993655;28;20057;-74
2023/04/04 04:59:14;;;;;;;5.53;3.20;;;;;;;0.02;100.00;103078.22;4994428;28;20033;-73
2023/04/04 05:01:40;;;;;;;6.88;3.65;;;;;;;0.01;100.00;103077.34;4996837;28;20047;-74
2023/04/04 05:04:05;;;;;;;5.63;3.20;;;;;;;-0.01;100.00;103084.19;4977312;28;20041;-74
2023/04/04 05:06:31;;;;;;;10.38;3.63;;;;;;;-0.03;100.00;103070.25;4979709;28;20455;-74
2023/04/04 05:08:57;;;;;;;5.00;3.40;;;;;;;-0.04;100.00;103073.69;4979102;28;20100;-74
2023/04/04 05:11:22;;;;;;;5.38;3.53;;;;;;;-0.06;100.00;103072.75;4996258;28;20163;-74
2023/04/04 05:13:48;;;;;;;6.03;3.20;;;;;;;-0.08;100.00;103082.22;4984539;28;20037;-74
2023/04/04 05:16:14;;;;;;;5.53;3.38;;;;;;;-0.07;100.00;103086.59;4998442;28;20034;-74
2023/04/04 05:18:39;;;;;;;6.75;3.50;;;;;;;-0.08;100.00;103082.22;4975467;28;20503;-74
2023/04/04 05:21:06;;;;;;;5.60;3.05;;;;;;;-0.08;100.00;103095.25;4975134;28;20065;-72
2023/04/04 05:23:31;;;;;;;4.93;3.40;;;;;;;-0.11;100.00;103098.63;4984364;28;20500;-73
2023/04/04 05:25:57;;;;;;;4.80;3.35;;;;;;;-0.11;100.00;103093.41;4995643;28;20042;-74
2023/04/04 05:28:22;;;;;;;4.70;3.30;;;;;;;-0.10;100.00;103089.09;4999916;28;20037;-74
2023/04/04 05:30:48;;;;;;;5.60;3.20;;;;;;;-0.09;100.00;103096.97;4984669;28;20514;-74
2023/04/04 05:33:13;;;;;;;6.47;3.75;;;;;;;-0.06;100.00;103098.81;4976512;28;20045;-74
2023/04/04 05:35:40;;;;;;;5.88;3.38;;;;;;;-0.05;100.00;103092.75;4997723;28;20053;-76
2023/04/04 05:38:25;;;;;;;6.60;3.55;;;;;;;-0.03;100.00;103096.28;4989373;28;20121;-76
2023/04/04 05:40:53;;;;;;;7.25;3.10;;;;;;;-0.03;100.00;103083.28;4985169;28;20124;-76
2023/04/04 05:43:19;;;;;;;6.93;3.25;;;;;;;-0.02;100.00;103095.47;4984261;28;20072;-75
2023/04/04 05:45:44;;;;;;;5.65;3.50;;;;;;;-0.01;100.00;103094.63;4993838;28;20085;-73
2023/04/04 05:48:10;;;;;;;4.88;3.42;;;;;;;-0.01;100.00;103089.41;4995230;28;21615;-74
2023/04/04 05:50:35;;;;;;;6.20;3.20;;;;;;;0.00;100.00;103104.22;4995168;28;20753;-73
2023/04/04 05:53:01;;;;;;;7.65;3.85;;;;;;;-0.01;100.00;103094.63;4982141;28;20072;-74
2023/04/04 05:55:28;;;;;;;3.80;2.97;;;;;;;0.00;100.00;103101.63;4986335;28;20037;-73
2023/04/04 05:57:53;;;;;;;5.80;3.33;;;;;;;0.01;100.00;103100.78;4993732;28;20184;-75
2023/04/04 06:00:19;;;;;;;5.43;3.10;;;;;;;0.03;100.00;103101.72;4997953;28;20038;-76
2023/04/04 06:02:44;;;;;;;5.20;2.97;;;;;;;0.06;100.00;103106.16;4983268;28;20123;-76
2023/04/04 06:05:10;;;;;;;7.75;3.35;;;;;;;0.09;100.00;103106.25;4995602;28;20048;-76
2023/04/04 06:07:36;;;;;;;6.85;3.65;;;;;;;0.14;100.00;103102.09;4980337;28;20034;-76
2023/04/04 06:10:03;;;;;;;5.03;3.55;;;;;;;0.18;100.00;103092.66;5000601;28;20249;-75
2023/04/04 06:12:28;;;;;;;4.72;3.10;;;;;;;0.22;100.00;103091.94;4994699;28;20788;-76
2023/04/04 06:14:54;;;;;;;6.80;3.30;;;;;;;0.25;100.00;103086.81;4994953;28;20042;-75
2023/04/04 06:17:20;;;;;;;5.30;3.33;;;;;;;0.30;100.00;103090.47;4967884;28;20041;-76
2023/04/04 06:19:45;;;;;;;4.50;3.40;;;;;;;0.35;100.00;103088.00;4988017;28;20040;-76
2023/04/04 06:22:11;;;;;;;5.47;3.05;;;;;;;0.39;100.00;103082.09;4998362;28;20704;-76
2023/04/04 06:24:36;;;;;;;4.80;3.47;;;;;;;0.44;100.00;103083.09;4965057;28;20048;-76
2023/04/04 06:27:02;;;;;;;4.60;2.72;;;;;;;0.50;100.00;103092.84;4995744;28;20034;-76
2023/04/04 06:29:27;;;;;;;6.30;3.03;;;;;;;0.55;100.00;103096.50;4957788;28;20400;-76
2023/04/04 06:31:53;;;;;;;4.95;3.08;;;;;;;0.60;100.00;103094.91;4997297;28;20034;-77
2023/04/04 06:34:21;;;;;;;9.13;4.90;;;;;;;0.69;100.00;103098.66;4999615;28;20037;-76
2023/04/04 06:36:47;;;;;;;5.22;3.33;;;;;;;0.76;100.00;103096.28;4997096;28;20352;-77
2023/04/04 06:39:12;;;;;;;4.35;2.92;;;;;;;0.83;100.00;103094.78;4999772;28;20030;-76
2023/04/04 06:41:38;;;;;;;6.47;3.20;;;;;;;0.88;100.00;103095.78;4987195;28;20038;-76
2023/04/04 06:44:03;;;;;;;3.50;2.67;;;;;;;0.93;100.00;103102.03;4978153;28;20045;-76
2023/04/04 06:46:31;;;;;;;5.30;3.00;;;;;;;0.96;100.00;103096.03;4980841;28;20037;-75
2023/04/04 06:48:57;;;;;;;4.72;2.60;;;;;;;1.00;100.00;103102.22;4969999;28;20060;-75
2023/04/04 06:51:26;;;;;;;5.90;2.92;;;;;;;1.02;100.00;103109.28;4971874;28;20466;-75
2023/04/04 06:53:51;;;;;;;4.50;2.70;;;;;;;1.10;100.00;103111.22;4993262;28;20042;-75
2023/04/04 06:56:17;;;;;;;6.05;3.05;;;;;;;1.17;100.00;103114.09;4996655;28;20036;-75
2023/04/04 06:58:42;;;;;;;5.43;2.90;;;;;;;1.23;100.00;103113.38;4979918;28;20485;-75
2023/04/04 07:01:08;;;;;;;4.38;2.47;;;;;;;1.28;100.00;103105.66;4977569;28;20072;-75
2023/04/04 07:03:33;;;;;;;4.32;2.58;;;;;;;1.33;100.00;103111.91;4981476;28;20042;-75
2023/04/04 07:06:03;;;;;;;4.10;2.40;;;;;;;1.37;100.00;103107.69;4981357;28;20059;-75
2023/04/04 07:08:29;;;;;;;4.78;2.63;;;;;;;1.42;100.00;103099.13;4980910;28;20295;-74
2023/04/04 07:10:55;;;;;;;5.82;2.90;;;;;;;1.47;100.00;103094.94;4998258;28;20046;-75
2023/04/04 07:13:21;;;;;;;4.32;2.45;;;;;;;1.52;100.00;103102.03;4980400;28;20077;-75
2023/04/04 07:15:48;;;;;;;3.97;2.53;;;;;;;1.54;100.00;103092.50;4982220;28;20504;-75
2023/04/04 07:18:16;;;;;;;7.65;2.83;;;;;;;1.59;100.00;103090.91;4981222;28;20201;-75
2023/04/04 07:20:45;;;;;;;4.50;2.67;;;;;;;1.62;100.00;103097.09;4987495;28;20042;-75
2023/04/04 07:23:11;;;;;;;2.90;2.15;;;;;;;1.67;100.00;103088.50;4982068;28;20074;-75
2023/04/04 07:25:37;;;;;;;4.15;2.58;;;;;;;1.72;100.00;103086.91;4997678;28;20108;-75
2023/04/04 07:28:02;;;;;;;5.13;3.20;;;;;;;1.75;100.00;103077.41;4994519;28;20041;-75
2023/04/04 07:30:31;;;;;;;6.65;2.83;;;;;;;1.86;100.00;103082.06;4981709;28;20038;-75
2023/04/04 07:33:01;;;;;;;6.05;3.00;;;;;;;1.94;100.00;103083.16;4978788;28;20069;-75
2023/04/04 07:35:27;;;;;;;7.45;2.65;;;;;;;2.02;100.00;103078.13;4998192;28;20046;-75
2023/04/04 07:37:53;;;;;;;3.80;2.70;;;;;;;2.07;100.00;103080.88;4970961;28;20044;-75
2023/04/04 07:40:18;;;;;;;5.13;2.58;;;;;;;2.10;100.00;103084.44;4970241;28;20030;-75
2023/04/04 07:42:50;;;;;;;4.13;2.40;;;;;;;2.17;100.00;103073.31;4982663;28;20054;-74
2023/04/04 07:45:16;;;;;;;5.35;2.60;;;;;;;2.27;100.00;103073.53;4982698;28;20038;-74
2023/04/04 07:47:45;;;;;;;4.63;2.53;;;;;;;2.35;100.00;103078.94;4977393;28;20038;-73
2023/04/04 07:50:12;;;;;;;6.20;2.55;;;;;;;2.38;100.00;103071.16;4982667;28;20061;-73
2023/04/04 07:52:38;;;;;;;5.60;2.60;;;;;;;2.42;100.00;103071.31;4968914;28;20041;-74
2023/04/04 07:55:06;;;;;;;3.50;2.65;;;;;;;2.48;100.00;103075.78;4994045;28;20026;-73
2023/04/04 07:57:40;;;;;;;5.35;2.72;;;;;;;2.50;100.00;103079.31;4980322;28;20118;-73
2023/04/04 08:00:08;;;;;;;4.70;2.65;;;;;;;2.53;100.00;103078.50;4981335;28;20073;-73
2023/04/04 08:02:38;;;;;;;4.65;2.97;;;;;;;2.58;100.00;103069.91;4967565;28;20160;-74
2023/04/04 08:05:03;;;;;;;5.60;2.65;;;;;;;2.66;100.00;103071.88;4967811;28;20056;-73
2023/04/04 08:07:29;;;;;;;4.72;2.53;;;;;;;2.73;100.00;103068.53;4976302;28;20117;-74
2023/04/04 08:09:55;;;;;;;5.18;2.90;;;;;;;2.78;100.00;103072.13;4981663;28;20046;-74
2023/04/04 08:12:21;;;;;;;4.25;2.70;;;;;;;2.84;100.00;103074.88;4998382;28;20386;-74
2023/04/04 08:14:46;;;;;;;4.45;2.60;;;;;;;2.87;100.00;103068.84;4985460;28;20157;-73
2023/04/04 08:17:12;;;;;;;6.20;3.03;;;;;;;2.89;100.00;103072.34;4988967;28;20083;-74
2023/04/04 08:19:37;;;;;;;4.50;2.50;;;;;;;2.92;100.00;103077.69;4996085;28;20049;-73
2023/04/04 08:22:04;;;;;;;4.20;2.65;;;;;;;2.97;100.00;103075.16;4971099;28;20041;-74
2023/04/04 08:24:29;;;;;;;4.40;2.50;;;;;;;3.02;100.00;103075.25;4984188;28;20081;-75
2023/04/04 08:26:55;;;;;;;6.13;2.78;;;;;;;3.10;100.00;103071.97;4982414;28;20034;-74
2023/04/04 08:29:21;;;;;;;3.85;2.53;;;;;;;3.22;100.00;103070.47;4968273;28;20035;-73
2023/04/04 08:31:46;;;;;;;4.45;2.70;;;;;;;3.29;100.00;103074.97;4977027;28;20129;-74
2023/04/04 08:34:12;;;;;;;4.90;2.60;;;;;;;3.33;100.00;103074.19;4991451;28;20160;-74
2023/04/04 08:36:38;;;;;;;5.55;2.80;;;;;;;3.36;100.00;103069.03;4979055;28;20504;-74
2023/04/04 08:39:03;;;;;;;5.00;2.92;;;;;;;3.42;100.00;103070.88;4993720;28;20029;-74
2023/04/04 08:41:30;;;;;;;4.43;2.58;;;;;;;3.48;100.00;103070.13;4995382;28;20084;-74
2023/04/04 08:43:56;;;;;;;4.15;2.63;;;;;;;3.54;100.00;103070.22;4980596;28;20046;-74
2023/04/04 08:46:23;;;;;;;3.25;2.53;;;;;;;3.58;100.00;103068.53;4981000;28;20572;-73
2023/04/04 08:48:50;;;;;;;4.95;2.25;;;;;;;3.63;100.00;103064.28;4980081;28;20093;-73
2023/04/04 08:51:19;;;;;;;3.05;2.42;;;;;;;3.69;100.00;103063.53;4978513;28;20524;-73
2023/04/04 08:53:44;;;;;;;4.97;2.60;;;;;;;3.71;100.00;103061.81;4975609;28;20505;-74
2023/04/04 08:56:10;;;;;;;3.60;2.35;;;;;;;3.77;100.00;103069.81;4966264;28;20617;-74
2023/04/04 08:58:37;;;;;;;3.85;2.20;;;;;;;3.84;100.00;103060.31;4995790;28;20062;-74
2023/04/04 09:01:05;;;;;;;4.05;2.30;;;;;;;3.88;100.00;103059.50;4985703;28;20397;-73
2023/04/04 09:03:33;;;;;;;2.67;2.10;;;;;;;3.96;100.00;103059.66;4967456;28;20037;-74
2023/04/04 09:05:58;;;;;;;4.07;2.35;;;;;;;4.07;100.00;103058.09;4976551;28;20076;-73
2023/04/04 09:08:24;;;;;;;3.55;2.38;;;;;;;4.19;100.00;103066.19;4984588;28;20442;-74
2023/04/04 09:10:51;;;;;;;5.47;2.42;;;;;;;4.31;100.00;103055.00;4979772;28;20049;-73
2023/04/04 09:13:17;;;;;;;3.53;2.40;;;;;;;4.45;100.00;103060.47;4961770;28;20052;-73
2023/04/04 09:15:46;;;;;;;4.75;2.40;;;;;;;4.64;100.00;103059.88;4966448;28;20038;-73
2023/04/04 09:18:12;;;;;;;4.22;2.15;;;;;;;4.74;100.00;103061.78;4981554;28;20034;-73
2023/04/04 09:20:58;;;;;;;3.45;2.35;;;;;;;4.85;100.00;103061.94;4991804;28;20054;-74
2023/04/04 09:23:24;;;;;;;3.67;2.28;;;;;;;4.96;100.00;103054.22;4980001;28;20248;-73
2023/04/04 09:25:52;;;;;;;4.75;2.22;;;;;;;5.05;100.00;103059.59;4974592;28;20053;-74
2023/04/04 09:28:19;;;;;;;2.92;1.92;;;;;;;5.11;100.00;103051.78;4979338;28;20402;-73
2023/04/04 09:30:49;;;;;;;4.32;2.08;;;;;;;5.20;100.00;103056.28;4977904;28;20583;-74
2023/04/04 09:33:15;;;;;;;5.10;2.13;;;;;;;5.30;100.00;103054.66;4975779;28;20034;-74
2023/04/04 09:35:45;;;;;;;4.82;2.42;;;;;;;5.40;100.00;103050.38;4978920;28;20546;-74
2023/04/04 09:38:11;;;;;;;2.42;2.03;;;;;;;5.46;100.00;103049.56;4975711;28;20635;-72
2023/04/04 09:40:40;;;;;;;2.58;1.75;;;;;;;5.46;100.00;103046.94;4978141;28;20088;-73
2023/04/04 09:43:07;;;;;;;3.50;1.80;;;;;;;5.54;100.00;103046.16;4977777;28;20033;-73
2023/04/04 09:45:39;;;;;;;3.55;1.92;;;;;;;5.64;99.20;103046.25;4979599;28;20033;-73
2023/04/04 09:48:09;;;;;;;4.90;2.20;;;;;;;5.67;99.16;103046.31;4978741;28;20540;-73
2023/04/04 09:50:35;;;;;;;4.68;2.20;;;;;;;5.62;99.21;103050.63;4978139;28;20086;-72
2023/04/04 09:53:01;;;;;;;2.55;1.73;;;;;;;5.61;98.75;103046.25;4977987;28;20066;-73
2023/04/04 09:55:34;;;;;;;2.65;2.05;;;;;;;5.60;96.22;103047.97;4975135;28;20042;-73
2023/04/04 09:58:10;;;;;;;4.70;1.70;;;;;;;5.59;97.14;103043.59;4979619;28;20373;-73
2023/04/04 10:00:40;;;;;;;3.28;1.80;;;;;;;5.56;94.23;103046.19;4966245;28;20132;-73
2023/04/04 10:03:06;;;;;;;3.90;1.80;;;;;;;5.57;93.96;103045.31;4976133;28;20497;-73
2023/04/04 10:05:32;;;;;;;2.70;1.70;;;;;;;5.63;93.75;103039.25;4967194;28;20130;-73
2023/04/04 10:07:58;;;;;;;3.97;1.67;;;;;;;5.68;94.07;103043.66;4946970;28;20034;-73
2023/04/04 10:10:27;;;;;;;4.97;1.70;;;;;;;5.71;92.29;103040.19;4974190;28;20045;-73
2023/04/04 10:12:53;;;;;;;3.65;1.70;;;;;;;5.71;91.84;103042.81;4966606;28;20779;-73
2023/04/04 10:15:21;;;;;;;2.10;1.40;;;;;;;5.73;90.16;103041.13;4993834;28;20501;-73
2023/04/04 10:17:47;;;;;;;4.88;2.00;;;;;;;5.73;90.12;103034.97;4979331;28;20504;-73
2023/04/04 10:20:13;;;;;;;3.58;1.83;;;;;;;5.76;88.22;103038.50;4980445;28;20045;-73
2023/04/04 10:22:39;;;;;;;2.45;1.90;;;;;;;5.77;85.23;103036.78;4980555;28;20108;-73
2023/04/04 10:25:06;;;;;;;2.97;1.88;;;;;;;5.77;84.69;103036.78;4998155;28;20049;-73
2023/04/04 10:27:32;;;;;;;3.88;1.70;;;;;;;5.81;86.20;103036.81;4993556;28;20045;-73
2023/04/04 10:29:58;;;;;;;2.85;1.83;;;;;;;5.89;85.89;103033.38;4962249;28;20053;-73
2023/04/04 10:32:37;;;;;;;3.65;1.73;;;;;;;5.94;86.17;103031.66;4982562;28;20424;-73
2023/04/04 10:35:04;;;;;;;2.15;1.58;;;;;;;5.97;84.89;103029.06;4969502;28;20079;-73
2023/04/04 10:37:34;;;;;;;2.92;2.03;;;;;;;6.05;85.69;103024.78;4995126;28;20068;-73
2023/04/04 10:40:13;;;;;;;2.50;2.10;;;;;;;6.15;82.85;103025.72;4985555;28;20423;-73
2023/04/04 10:42:41;;;;;;;2.75;2.03;;;;;;;6.23;85.50;103026.66;4988320;28;20400;-73
2023/04/04 10:45:09;;;;;;;3.70;2.08;;;;;;;6.25;84.31;103017.06;4989149;28;20042;-73
2023/04/04 10:47:36;;;;;;;6.25;2.53;;;;;;;6.32;84.06;103017.09;5001088;28;20034;-73
2023/04/04 10:50:06;;;;;;;3.22;2.10;;;;;;;6.38;84.13;103015.38;4972842;28;20038;-73
2023/04/04 10:52:32;;;;;;;3.90;2.38;;;;;;;6.42;83.58;103015.44;4986830;28;20091;-73
2023/04/04 10:55:01;;;;;;;3.38;2.00;;;;;;;6.38;81.63;103015.38;4983066;28;20219;-73
2023/04/04 10:57:27;;;;;;;6.43;2.10;;;;;;;6.36;82.65;103011.88;4972390;28;20061;-73
2023/04/04 11:00:12;;;;;;;3.60;2.08;;;;;;;6.34;79.24;103013.63;4987944;28;20052;-73
2023/04/04 11:02:47;;;;;;;3.35;1.92;;;;;;;6.32;80.76;103011.84;4982054;28;20137;-73
2023/04/04 11:05:32;;;;;;;3.42;2.10;;;;;;;6.30;80.31;103003.94;5006594;28;20045;-73
2023/04/04 11:08:00;;;;;;;3.92;1.85;;;;;;;6.46;82.44;103011.91;4987653;28;20739;-73
2023/04/04 11:10:28;;;;;;;3.42;1.90;;;;;;;6.58;82.84;103006.75;4985797;28;20034;-73
2023/04/04 11:12:55;;;;;;;4.63;2.40;;;;;;;6.65;80.93;102999.78;4979782;28;20088;-73
2023/04/04 11:15:22;;;;;;;5.55;2.30;;;;;;;6.68;80.47;102998.88;4983033;28;20046;-73
2023/04/04 11:17:56;;;;;;;4.75;1.88;;;;;;;6.74;79.97;102997.19;4964530;28;20030;-73
2023/04/04 11:20:29;;;;;;;4.90;2.10;;;;;;;6.79;81.30;102997.19;5000445;28;20511;-73
2023/04/04 11:23:04;;;;;;;3.05;2.20;;;;;;;6.83;79.33;102999.00;4994200;28;20025;-73
2023/04/04 11:25:40;;;;;;;3.80;2.67;;;;;;;6.93;81.19;102998.13;4998923;28;20167;-73
2023/04/04 11:28:14;;;;;;;5.32;2.28;;;;;;;6.97;78.29;102990.28;5001124;28;20116;-73
2023/04/04 11:30:47;;;;;;;2.13;1.92;;;;;;;6.90;77.89;102990.25;4988515;28;20064;-72
2023/04/04 11:33:14;;;;;;;4.50;2.10;;;;;;;6.91;78.53;102985.84;5005046;28;20257;-72
2023/04/04 11:35:45;;;;;;;3.70;2.15;;;;;;;6.89;79.91;102980.59;5004079;28;20041;-73
2023/04/04 11:38:15;;;;;;;2.83;2.22;;;;;;;6.89;78.47;102974.44;4981488;28;20030;-73
2023/04/04 11:40:41;;;;;;;5.05;2.08;;;;;;;6.95;78.68;102976.19;4985047;28;20432;-73
2023/04/04 11:43:09;;;;;;;4.97;2.65;;;;;;;7.01;77.63;102970.94;5001087;28;20409;-73
2023/04/04 11:45:36;;;;;;;3.42;2.22;;;;;;;7.08;78.61;102970.09;5002697;28;20507;-73
2023/04/04 11:48:05;;;;;;;3.03;2.03;;;;;;;7.14;78.90;102975.38;4985573;28;20087;-73
2023/04/04 11:50:35;;;;;;;3.60;2.22;;;;;;;7.16;78.37;102967.50;4992364;28;20621;-73